createdAt,value
2019-04-05T00:00:42.994Z,11.00
2019-04-05T00:05:48.108Z,11.97
2019-04-05T00:10:53.062Z,10.93
2019-04-05T00:15:58.038Z,11.63
2019-04-05T00:21:02.712Z,12.90
2019-04-05T00:26:07.641Z,11.43
2019-04-05T00:31:12.426Z,12.37
2019-04-05T00:36:16.749Z,11.47
2019-04-05T00:41:20.680Z,10.87
2019-04-05T00:46:24.988Z,11.53
2019-04-05T00:51:29.365Z,11.77
2019-04-05T00:56:33.578Z,12.10
2019-04-05T01:01:37.903Z,11.60
2019-04-05T01:06:42.019Z,14.40
2019-04-05T01:11:46.416Z,13.57
2019-04-05T01:16:50.590Z,12.20
2019-04-05T01:21:56.246Z,11.70
2019-04-05T01:27:01.272Z,11.97
2019-04-05T01:32:06.214Z,11.20
2019-04-05T01:37:11.201Z,11.93
2019-04-05T01:42:16.242Z,12.60
2019-04-05T01:47:21.457Z,11.73
2019-04-05T01:52:28.231Z,12.03
2019-04-05T01:57:34.066Z,12.60
2019-04-05T02:02:39.490Z,13.07
2019-04-05T02:07:44.817Z,15.20
2019-04-05T02:12:49.965Z,16.40
2019-04-05T02:17:55.147Z,16.30
2019-04-05T02:23:00.472Z,12.93
2019-04-05T02:28:05.656Z,14.57
2019-04-05T02:33:10.800Z,14.23
2019-04-05T02:38:15.862Z,14.00
2019-04-05T02:43:23.809Z,13.60
2019-04-05T02:48:31.751Z,12.73
2019-04-05T02:53:38.731Z,15.03
2019-04-05T02:58:44.573Z,14.30
2019-04-05T03:03:49.618Z,13.77
2019-04-05T03:08:55.276Z,14.50
2019-04-05T03:14:02.973Z,14.03
2019-04-05T03:19:17.281Z,16.87
2019-04-05T03:24:26.781Z,21.97
2019-04-05T03:29:32.311Z,23.40
2019-04-05T03:34:38.463Z,24.07
2019-04-05T03:39:44.109Z,22.33
2019-04-05T03:44:49.326Z,22.97
2019-04-05T03:49:54.766Z,22.67
2019-04-05T03:55:00.679Z,23.33
2019-04-05T04:00:06.033Z,21.30
2019-04-05T04:05:11.081Z,20.90
2019-04-05T04:10:17.483Z,21.70
2019-04-05T04:15:24.311Z,20.23
2019-04-05T04:20:41.174Z,20.40
2019-04-05T04:25:46.983Z,22.03
2019-04-05T04:30:54.534Z,19.60
2019-04-05T04:35:59.723Z,21.40
2019-04-05T04:41:05.450Z,21.83
2019-04-05T04:46:09.950Z,19.90
2019-04-05T04:51:14.782Z,20.77
2019-04-05T04:56:19.586Z,21.50
2019-04-05T05:01:24.670Z,21.97
2019-04-05T05:06:29.140Z,21.70
2019-04-05T05:11:34.506Z,21.50
2019-04-05T05:16:38.796Z,22.33
2019-04-05T05:21:44.145Z,21.43
2019-04-05T05:26:48.541Z,21.00
2019-04-05T05:31:54.525Z,21.37
2019-04-05T05:37:01.297Z,22.53
2019-04-05T05:42:06.565Z,20.67
2019-04-05T05:47:12.389Z,23.47
2019-04-05T05:52:18.382Z,22.10
2019-04-05T05:57:24.869Z,22.23
2019-04-05T06:02:29.037Z,22.00
2019-04-05T06:07:34.823Z,23.40
2019-04-05T06:12:41.779Z,26.27
2019-04-05T06:17:47.241Z,22.43
2019-04-05T06:23:33.717Z,23.90
2019-04-05T06:28:31.853Z,25.20
2019-04-05T06:33:37.290Z,25.63
2019-04-05T06:38:42.566Z,25.50
2019-04-05T06:43:48.033Z,26.40
2019-04-05T06:48:53.586Z,26.33
2019-04-05T06:53:58.663Z,27.03
2019-04-05T06:59:04.945Z,26.03
2019-04-05T07:04:10.678Z,25.73
2019-04-05T07:09:15.847Z,25.83
2019-04-05T07:14:21.366Z,26.70
2019-04-05T07:19:26.703Z,25.50
2019-04-05T07:24:33.155Z,25.00
2019-04-05T07:29:37.988Z,24.67
2019-04-05T07:34:43.523Z,23.47
2019-04-05T07:39:48.655Z,22.10
2019-04-05T07:44:55.206Z,21.53
2019-04-05T07:50:00.331Z,21.53
2019-04-05T07:55:05.767Z,20.80
2019-04-05T08:00:40.908Z,22.20
2019-04-05T08:05:44.772Z,22.30
2019-04-05T08:10:48.527Z,22.97
2019-04-05T08:15:52.603Z,21.80
2019-04-05T08:20:57.273Z,21.60
2019-04-05T08:26:04.021Z,21.63
2019-04-05T08:31:10.805Z,20.40
2019-04-05T08:36:14.867Z,22.03
2019-04-05T08:41:20.743Z,21.00
2019-04-05T08:46:25.546Z,20.70
2019-04-05T08:51:30.388Z,20.57
2019-04-05T08:56:35.169Z,20.10
2019-04-05T09:01:39.425Z,19.97
2019-04-05T09:06:43.994Z,20.10
2019-04-05T09:11:48.713Z,20.50
2019-04-05T09:16:54.768Z,18.87
2019-04-05T09:21:59.138Z,20.70
2019-04-05T09:27:04.987Z,19.40
2019-04-05T09:32:09.085Z,20.27
2019-04-05T09:37:14.499Z,20.90
2019-04-05T09:42:20.817Z,20.00
2019-04-05T09:47:26.224Z,19.97
2019-04-05T09:52:31.711Z,20.10
2019-04-05T09:57:37.223Z,16.10
2019-04-05T10:02:42.977Z,17.77
2019-04-05T10:07:54.775Z,15.93
2019-04-05T10:12:55.901Z,14.80
2019-04-05T10:18:01.281Z,15.37
2019-04-05T10:23:06.463Z,14.20
2019-04-05T10:28:11.417Z,13.77
2019-04-05T10:33:16.812Z,14.60
2019-04-05T10:38:22.091Z,13.87
2019-04-05T10:43:27.199Z,12.33
2019-04-05T10:48:35.236Z,12.73
2019-04-05T10:53:39.741Z,13.63
2019-04-05T10:58:45.101Z,13.37
2019-04-05T11:03:51.560Z,12.53
2019-04-05T11:08:58.072Z,12.80
2019-04-05T11:14:13.570Z,12.73
2019-04-05T11:19:10.827Z,12.77
2019-04-05T11:24:16.008Z,12.37
2019-04-05T11:29:21.723Z,12.77
2019-04-05T11:34:27.234Z,13.70
2019-04-05T11:39:32.790Z,12.97
2019-04-05T11:44:39.761Z,12.60
2019-04-05T11:49:46.878Z,11.83
2019-04-05T11:54:52.213Z,10.20
2019-04-05T11:59:58.019Z,11.50
2019-04-05T12:05:03.382Z,11.50
2019-04-05T12:10:08.907Z,11.10
2019-04-05T12:15:14.369Z,11.07
2019-04-05T12:20:19.753Z,11.80
2019-04-05T12:25:25.443Z,11.00
2019-04-05T12:30:31.463Z,11.90
2019-04-05T12:35:37.670Z,11.87
2019-04-05T12:40:44.225Z,11.60
2019-04-05T12:45:50.154Z,12.77
2019-04-05T12:51:01.009Z,13.03
2019-04-05T12:56:01.783Z,14.57
2019-04-05T13:01:08.158Z,14.53
2019-04-05T13:06:11.796Z,14.63
2019-04-05T13:11:16.092Z,13.57
2019-04-05T13:16:22.364Z,14.57
2019-04-05T13:21:27.726Z,14.93
2019-04-05T13:26:32.399Z,14.00
2019-04-05T13:31:37.492Z,15.33
2019-04-05T13:36:41.896Z,17.83
2019-04-05T13:41:47.793Z,32.87
2019-04-05T13:46:53.572Z,21.20
2019-04-05T13:51:59.760Z,18.37
2019-04-05T13:57:05.573Z,16.77
2019-04-05T14:02:10.214Z,16.63
2019-04-05T14:07:15.455Z,25.93
2019-04-05T14:12:22.078Z,39.30
2019-04-05T14:17:26.348Z,20.77
2019-04-05T14:22:30.912Z,15.10
2019-04-05T14:27:36.011Z,15.10
2019-04-05T14:32:41.059Z,14.47
2019-04-05T14:37:46.307Z,15.10
2019-04-05T14:42:51.838Z,14.83
2019-04-05T14:47:58.452Z,13.87
2019-04-05T14:53:04.375Z,13.90
2019-04-05T14:58:10.736Z,15.70
2019-04-05T15:03:16.939Z,16.90
2019-04-05T15:08:22.599Z,16.33
2019-04-05T15:13:28.212Z,14.17
2019-04-05T15:18:33.336Z,13.97
2019-04-05T15:23:41.247Z,21.20
2019-04-05T15:28:46.988Z,14.10
2019-04-05T15:33:52.827Z,14.67
2019-04-05T15:39:10.353Z,14.47
2019-04-05T15:44:15.705Z,15.47
2019-04-05T15:49:22.919Z,14.37
2019-04-05T15:54:29.210Z,14.00
2019-04-05T15:59:35.054Z,17.93
2019-04-05T16:04:40.273Z,17.20
2019-04-05T16:09:45.780Z,16.30
2019-04-05T16:14:51.243Z,14.40
2019-04-05T16:19:56.131Z,14.43
2019-04-05T16:25:03.897Z,13.23
2019-04-05T16:30:10.597Z,24.90
2019-04-05T16:35:15.776Z,23.10
2019-04-05T16:40:21.040Z,13.77
2019-04-05T16:45:26.709Z,12.87
2019-04-05T16:50:32.139Z,13.77
2019-04-05T16:55:36.240Z,15.33
2019-04-05T17:00:41.272Z,15.00
2019-04-05T17:05:44.965Z,14.60
2019-04-05T17:10:49.302Z,16.40
2019-04-05T17:15:54.081Z,14.87
2019-04-05T17:20:59.186Z,14.50
2019-04-05T17:26:04.458Z,14.43
2019-04-05T17:31:09.836Z,15.60
2019-04-05T17:36:14.943Z,16.07
2019-04-05T17:41:19.431Z,16.10
2019-04-05T17:46:23.792Z,14.37
2019-04-05T17:51:28.299Z,16.30
2019-04-05T17:56:32.750Z,15.87
2019-04-05T18:01:38.840Z,16.67
2019-04-05T18:06:43.823Z,18.03
2019-04-05T18:11:48.195Z,17.07
2019-04-05T18:16:54.194Z,18.27
2019-04-05T18:21:59.160Z,18.80
2019-04-05T18:27:04.959Z,19.10
2019-04-05T18:32:11.618Z,20.10
2019-04-05T18:37:16.999Z,20.77
2019-04-05T18:42:22.136Z,21.77
2019-04-05T18:47:27.433Z,22.57
2019-04-05T18:52:32.556Z,23.40
2019-04-05T18:57:37.903Z,24.47
2019-04-05T19:02:42.958Z,21.93
2019-04-05T19:07:48.126Z,24.50
2019-04-05T19:12:53.072Z,23.67
2019-04-05T19:17:58.294Z,24.73
2019-04-05T19:23:03.315Z,23.30
2019-04-05T19:28:08.919Z,24.90
2019-04-05T19:48:36.490Z,23.73
2019-04-05T19:53:41.576Z,23.60
2019-04-05T19:58:46.678Z,22.10
2019-04-05T20:03:51.412Z,37.00
2019-04-05T20:08:56.688Z,30.77
2019-04-05T20:14:01.820Z,29.80
2019-04-05T20:19:08.290Z,29.30
2019-04-05T20:24:14.659Z,24.93
2019-04-05T20:29:21.553Z,24.33
2019-04-05T20:34:27.420Z,22.60
2019-04-05T20:39:32.498Z,22.63
2019-04-05T20:44:38.380Z,22.97
2019-04-05T20:49:43.764Z,23.90
2019-04-05T20:54:48.767Z,23.60
2019-04-05T20:59:54.099Z,22.53
2019-04-05T21:04:59.056Z,21.40
2019-04-05T21:10:05.006Z,21.30
2019-04-05T21:15:10.521Z,22.60
2019-04-05T21:20:16.353Z,23.20
2019-04-05T21:25:21.705Z,23.67
2019-04-05T21:30:26.969Z,21.70
2019-04-05T21:35:32.594Z,20.83
2019-04-05T21:40:37.514Z,19.23
2019-04-05T21:45:41.396Z,20.30
2019-04-05T21:50:46.266Z,20.13
2019-04-05T21:55:51.087Z,19.80
2019-04-05T22:01:02.266Z,21.57
2019-04-05T22:06:08.477Z,19.03
2019-04-05T22:11:13.470Z,22.97
2019-04-05T22:16:16.846Z,20.87
2019-04-05T22:21:20.380Z,21.43
2019-04-05T22:26:24.218Z,20.90
2019-04-05T22:31:28.109Z,20.70
2019-04-05T22:36:34.562Z,20.40
2019-04-05T22:41:39.249Z,20.57
2019-04-05T22:46:43.399Z,20.30
2019-04-05T22:51:49.686Z,20.50
2019-04-05T22:56:53.957Z,21.33
2019-04-05T23:01:58.479Z,20.07
2019-04-05T23:07:03.064Z,21.40
2019-04-05T23:12:07.814Z,19.90
2019-04-05T23:17:12.550Z,20.50
2019-04-05T23:22:17.759Z,21.97
2019-04-05T23:27:23.276Z,21.43
2019-04-05T23:32:28.261Z,22.00
2019-04-05T23:37:34.390Z,21.70
2019-04-05T23:42:39.121Z,19.97
2019-04-05T23:47:44.055Z,20.30
2019-04-05T23:52:49.200Z,20.90
2019-04-05T23:57:54.415Z,20.37
